Time;durP1;ratioP1;P1;durP2;ratioP2;P2;SDS_P1;SDS_P2;PMS_P1;PMS_P2;Temp;Humidity;BMP_temperature;BMP_pressure;BME280_temperature;BME280_humidity;BME280_pressure;Samples;Min_cycle;Max_cycle;Signal;HPM_P1;HPM_P2
2023/10/12 00:00:24;;;;;;;8.08;2.60;;;;;;;10.96;44.28;100598.34;1683943;85;21086;-74
2023/10/12 00:02:32;;;;;;;10.53;3.47;;;;;;;10.94;44.35;100586.20;1681544;85;21059;-72
2023/10/12 00:05:06;;;;;;;7.75;2.83;;;;;;;10.93;44.41;100585.03;1683863;85;21514;-73
2023/10/12 00:07:36;;;;;;;8.58;3.20;;;;;;;10.92;44.47;100591.03;1694116;83;21106;-73
2023/10/12 00:12:44;;;;;;;8.28;2.95;;;;;;;10.90;44.55;100582.16;1684032;84;21082;-73
2023/10/12 00:17:59;;;;;;;9.18;3.25;;;;;;;10.91;44.65;100569.30;1683989;85;21105;-72
2023/10/12 00:23:02;;;;;;;8.18;3.10;;;;;;;10.90;44.81;100559.37;1683940;85;21043;-72
2023/10/12 00:25:34;;;;;;;8.08;3.17;;;;;;;10.90;44.82;100553.38;1683923;84;21079;-73
2023/10/12 00:28:01;;;;;;;6.00;3.00;;;;;;;10.91;44.91;100540.52;1683843;85;21023;-72
2023/10/12 00:30:32;;;;;;;8.58;3.20;;;;;;;10.90;45.00;100536.92;1683773;85;21543;-74
2023/10/12 00:33:01;;;;;;;7.78;3.22;;;;;;;10.89;45.11;100535.23;1683894;85;21070;-72
2023/10/12 00:35:32;;;;;;;10.55;3.20;;;;;;;10.92;45.15;100527.13;1683826;85;21585;-73
2023/10/12 00:38:10;;;;;;;7.62;2.90;;;;;;;10.93;45.19;100528.83;1683961;85;21326;-73
2023/10/12 00:40:32;;;;;;;6.75;3.20;;;;;;;10.93;45.25;100524.20;1683064;85;21462;-72
2023/10/12 00:43:01;;;;;;;8.63;3.08;;;;;;;10.95;45.33;100524.00;1683770;84;21122;-74
2023/10/12 00:45:31;;;;;;;8.68;3.27;;;;;;;10.96;45.41;100525.17;1683731;85;21050;-72
2023/10/12 00:48:15;;;;;;;6.47;3.15;;;;;;;10.97;45.45;100529.61;1683969;85;21059;-72
2023/10/12 00:50:43;;;;;;;7.55;3.22;;;;;;;10.98;45.51;100518.97;1683601;84;21065;-73
2023/10/12 00:53:15;;;;;;;8.35;3.10;;;;;;;11.00;45.58;100520.14;1683824;85;21055;-73
2023/10/12 00:55:45;;;;;;;8.05;2.85;;;;;;;11.00;45.64;100518.25;1683948;85;21147;-74
2023/10/12 00:58:15;;;;;;;6.70;3.08;;;;;;;11.02;45.75;100518.05;1683771;85;21043;-73
2023/10/12 01:00:51;;;;;;;6.42;3.02;;;;;;;11.04;45.84;100510.48;1683904;85;21173;-73
2023/10/12 01:03:30;;;;;;;6.95;2.90;;;;;;;11.04;45.93;100505.84;1687395;83;21087;-73
2023/10/12 01:06:51;;;;;;;9.75;3.17;;;;;;;11.06;46.00;100502.41;1683833;84;21087;-72
2023/10/12 01:08:47;;;;;;;8.70;2.90;;;;;;;11.08;46.04;100492.09;1678793;85;21019;-72
2023/10/12 01:11:25;;;;;;;6.28;2.50;;;;;;;11.09;46.06;100491.04;1683841;85;21051;-72
2023/10/12 01:19:22;;;;;;;11.43;3.60;;;;;;;11.11;46.26;100485.36;1684149;85;21071;-72
2023/10/12 01:21:54;;;;;;;9.03;3.30;;;;;;;11.13;46.34;100487.90;1683819;85;21027;-74
2023/10/12 01:24:30;;;;;;;9.20;3.37;;;;;;;11.14;46.41;100474.52;1684045;85;21137;-73
2023/10/12 01:26:54;;;;;;;7.37;2.80;;;;;;;11.14;46.47;100478.63;1683363;85;21059;-72
2023/10/12 01:29:25;;;;;;;7.25;2.92;;;;;;;11.16;46.50;100484.76;1683955;85;21074;-74
2023/10/12 01:32:21;;;;;;;9.03;3.10;;;;;;;11.16;46.55;100486.12;1683904;85;21118;-74
2023/10/12 01:34:44;;;;;;;7.37;2.92;;;;;;;11.17;46.63;100483.71;1682525;84;21035;-74
2023/10/12 01:37:22;;;;;;;8.63;2.77;;;;;;;11.16;46.73;100479.28;1683680;85;21063;-72
2023/10/12 01:40:08;;;;;;;7.65;3.20;;;;;;;11.15;46.78;100480.32;1683901;85;21074;-74
2023/10/12 01:45:19;;;;;;;6.00;3.05;;;;;;;11.13;46.95;100481.89;1683808;85;21102;-72
2023/10/12 01:48:07;;;;;;;;;;;;;;;11.13;47.12;100494.76;1686276;85;21082;-72
2023/10/12 01:50:38;;;;;;;8.08;2.92;;;;;;;11.12;47.17;100477.45;1684140;85;20272;-74
2023/10/12 01:55:52;;;;;;;13.00;3.17;;;;;;;11.10;47.29;100478.17;1683914;84;21078;-75
2023/10/12 01:58:27;;;;;;;8.88;3.00;;;;;;;11.07;47.36;100472.56;1683841;84;21063;-74
2023/10/12 02:00:55;;;;;;;8.88;2.98;;;;;;;11.06;47.42;100479.09;1683909;85;21062;-73
2023/10/12 02:03:31;;;;;;;6.08;2.85;;;;;;;11.05;47.49;100482.01;1683912;85;21118;-73
2023/10/12 02:06:00;;;;;;;9.58;3.30;;;;;;;11.03;47.54;100474.50;1684369;83;21182;-74
2023/10/12 02:08:40;;;;;;;4.92;3.00;;;;;;;11.00;47.61;100481.23;1694258;85;21018;-74
2023/10/12 02:13:47;;;;;;;8.00;3.20;;;;;;;10.97;47.76;100477.52;1683956;85;21026;-75
2023/10/12 02:16:31;;;;;;;4.90;2.67;;;;;;;10.93;47.86;100470.73;1683746;85;21477;-73
2023/10/12 02:18:56;;;;;;;7.67;2.75;;;;;;;10.91;47.95;100476.09;1683507;85;21047;-74
2023/10/12 02:21:27;;;;;;;8.68;3.33;;;;;;;10.88;48.09;100464.16;1683706;85;21059;-73
2023/10/12 02:23:57;;;;;;;7.30;2.92;;;;;;;10.86;48.19;100466.25;1683980;85;21491;-73
2023/10/12 02:34:28;;;;;;;12.03;3.55;;;;;;;10.76;48.54;100456.47;1683883;85;21051;-72
2023/10/12 02:39:41;;;;;;;10.40;3.05;;;;;;;10.74;48.81;100448.13;1683774;85;21047;-74
2023/10/12 02:47:23;;;;;;;8.80;3.12;;;;;;;10.69;49.06;100448.72;1683900;85;21122;-72
2023/10/12 02:52:43;;;;;;;8.30;2.83;;;;;;;10.65;49.39;100441.94;1683896;85;21047;-74
2023/10/12 02:57:54;;;;;;;11.45;4.97;;;;;;;10.63;49.57;100440.44;1683735;85;21015;-74
2023/10/12 03:00:44;;;;;;;10.28;4.08;;;;;;;10.62;49.63;100442.33;1683753;85;21086;-73
2023/10/12 03:03:23;;;;;;;7.03;3.10;;;;;;;10.60;49.70;100438.94;1682945;85;21447;-74
2023/10/12 03:05:46;;;;;;;7.03;3.10;;;;;;;10.58;49.83;100434.17;1682698;85;21074;-74
2023/10/12 03:08:23;;;;;;;8.55;2.90;;;;;;;10.55;49.94;100430.45;1693868;83;21592;-74
2023/10/12 03:11:08;;;;;;;8.30;3.12;;;;;;;10.54;50.02;100440.24;1692065;85;21055;-73
2023/10/12 03:13:35;;;;;;;7.05;3.00;;;;;;;10.52;50.18;100436.33;1683170;85;21385;-74
2023/10/12 03:16:13;;;;;;;19.60;3.62;;;;;;;10.50;50.33;100443.90;1683845;85;21091;-74
2023/10/12 03:18:45;;;;;;;7.08;3.42;;;;;;;10.48;50.43;100439.98;1684019;84;21075;-74
2023/10/12 03:21:14;;;;;;;9.83;3.62;;;;;;;10.48;50.52;100429.55;1683781;85;21035;-73
2023/10/12 03:23:46;;;;;;;10.65;3.60;;;;;;;10.47;50.60;100435.55;1683650;85;21102;-72
2023/10/12 03:29:22;;;;;;;7.83;3.10;;;;;;;10.44;50.76;100425.51;1683743;85;21098;-74
2023/10/12 03:31:35;;;;;;;6.72;2.80;;;;;;;10.43;50.94;100419.70;1675041;85;21533;-73
2023/10/12 03:34:05;;;;;;;7.87;3.10;;;;;;;10.42;51.02;100425.70;1683924;85;21078;-73
2023/10/12 03:36:36;;;;;;;8.13;2.90;;;;;;;10.41;51.14;100419.05;1683663;84;21110;-73
2023/10/12 03:44:35;;;;;;;7.30;3.00;;;;;;;10.33;51.58;100413.67;1683821;85;21050;-74
2023/10/12 03:46:57;;;;;;;7.50;3.15;;;;;;;10.33;51.68;100413.16;1681393;85;21078;-73
2023/10/12 03:51:59;;;;;;;8.70;2.95;;;;;;;10.32;51.96;100406.50;1683722;85;21035;-72
2023/10/12 03:54:32;;;;;;;6.40;3.02;;;;;;;10.32;52.00;100417.45;1683720;85;21090;-74
2023/10/12 03:57:19;;;;;;;9.68;3.10;;;;;;;10.29;52.13;100410.48;1683748;85;21091;-72
2023/10/12 03:59:44;;;;;;;9.20;3.05;;;;;;;10.30;52.20;100410.81;1681758;85;21150;-72
2023/10/12 04:02:14;;;;;;;8.50;2.75;;;;;;;10.29;52.24;100410.48;1683328;85;21043;-73
2023/10/12 04:04:45;;;;;;;8.53;3.20;;;;;;;10.29;52.35;100408.27;1683533;85;21031;-74
2023/10/12 04:07:17;;;;;;;8.65;3.20;;;;;;;10.29;52.48;100401.42;1683469;84;21086;-74
2023/10/12 04:09:53;;;;;;;7.00;3.10;;;;;;;10.29;52.56;100398.68;1683641;85;21099;-75
2023/10/12 04:14:57;;;;;;;9.25;2.98;;;;;;;10.28;52.71;100407.94;1683805;85;21502;-74
2023/10/12 04:28:08;;;;;;;7.10;2.92;;;;;;;10.29;53.38;100402.78;1683888;85;21095;-74
2023/10/12 04:30:32;;;;;;;8.10;2.90;;;;;;;10.30;53.48;100413.55;1681847;85;21490;-73
2023/10/12 04:43:40;;;;;;;7.28;3.40;;;;;;;10.34;54.04;100405.27;1683918;85;21102;-74
2023/10/12 04:48:43;;;;;;;11.93;3.30;;;;;;;10.38;54.16;100409.30;1683783;85;21062;-75
2023/10/12 04:51:19;;;;;;;10.63;3.17;;;;;;;10.39;54.26;100405.52;1683706;85;21115;-74
2023/10/12 04:54:05;;;;;;;6.42;3.27;;;;;;;10.42;54.37;100401.58;1683697;85;21079;-73
2023/10/12 04:56:30;;;;;;;8.55;3.30;;;;;;;10.44;54.50;100396.75;1683402;85;21083;-74
2023/10/12 04:58:59;;;;;;;7.20;3.67;;;;;;;10.46;54.49;100402.36;1683392;85;21047;-73
2023/10/12 05:01:40;;;;;;;13.83;4.90;;;;;;;10.48;54.59;100404.38;1683900;85;21075;-72
2023/10/12 05:04:08;;;;;;;8.10;3.42;;;;;;;10.52;54.64;100405.35;1682956;85;21471;-72
2023/10/12 05:06:34;;;;;;;10.35;3.08;;;;;;;10.54;54.78;100401.37;1683257;85;21066;-74
2023/10/12 05:09:11;;;;;;;4.95;2.58;;;;;;;10.56;54.85;100406.13;1693521;84;21101;-76
2023/10/12 05:11:36;;;;;;;6.92;3.27;;;;;;;10.60;54.88;100396.98;1694017;84;21067;-74
2023/10/12 05:14:14;;;;;;;6.22;3.30;;;;;;;10.63;55.03;100404.81;1693979;85;21205;-72
2023/10/12 05:16:42;;;;;;;7.55;3.10;;;;;;;10.67;55.07;100400.63;1683284;85;21051;-72
2023/10/12 05:19:11;;;;;;;8.30;2.80;;;;;;;10.69;55.22;100399.38;1683791;85;21106;-74
2023/10/12 05:21:40;;;;;;;8.83;3.75;;;;;;;10.74;55.26;100398.27;1683849;85;21059;-73
2023/10/12 05:24:09;;;;;;;9.58;3.40;;;;;;;10.78;55.40;100398.72;1683930;85;21047;-74
2023/10/12 05:26:38;;;;;;;8.03;2.80;;;;;;;10.84;55.65;100402.55;1683773;85;21046;-75
2023/10/12 05:29:52;;;;;;;6.85;2.98;;;;;;;10.87;55.65;100409.86;1683633;85;21071;-73
2023/10/12 05:31:48;;;;;;;9.88;2.87;;;;;;;10.91;55.62;100397.44;1666108;85;21093;-73
2023/10/12 05:37:09;;;;;;;6.55;3.40;;;;;;;10.98;55.44;100397.48;1683780;85;21114;-74
2023/10/12 05:39:30;;;;;;;10.75;3.72;;;;;;;11.03;55.47;100394.99;1682874;85;21090;-75
2023/10/12 05:42:05;;;;;;;11.57;3.40;;;;;;;11.06;55.46;100399.58;1683928;85;21102;-74
2023/10/12 05:44:30;;;;;;;5.67;3.00;;;;;;;11.10;55.54;100403.61;1683379;85;21051;-73
2023/10/12 05:47:03;;;;;;;9.38;3.67;;;;;;;11.16;55.71;100406.08;1683648;85;21101;-73
2023/10/12 05:49:33;;;;;;;8.88;3.33;;;;;;;11.20;55.79;100412.85;1683688;85;21059;-71
2023/10/12 05:52:05;;;;;;;12.33;3.87;;;;;;;11.26;55.92;100402.97;1683878;85;21054;-72
2023/10/12 05:54:33;;;;;;;8.95;2.95;;;;;;;11.30;56.04;100398.25;1683724;85;21097;-74
2023/10/12 05:57:06;;;;;;;7.65;3.00;;;;;;;11.35;56.10;100395.74;1683747;85;21098;-73
2023/10/12 05:59:33;;;;;;;7.17;3.25;;;;;;;11.41;56.14;100394.08;1683744;85;21098;-72
2023/10/12 06:02:02;;;;;;;11.65;4.20;;;;;;;11.46;56.18;100403.92;1683677;85;21470;-72
2023/10/12 06:04:32;;;;;;;7.47;3.15;;;;;;;11.51;56.21;100400.56;1683864;85;21086;-72
2023/10/12 06:07:03;;;;;;;7.83;3.30;;;;;;;11.55;56.40;100389.50;1683737;85;21352;-73
2023/10/12 06:09:38;;;;;;;14.43;4.70;;;;;;;11.61;56.41;100388.16;1669025;85;21023;-72
2023/10/12 06:12:08;;;;;;;6.50;3.30;;;;;;;11.66;56.67;100393.03;1667236;85;21080;-72
2023/10/12 06:14:38;;;;;;;12.30;3.58;;;;;;;11.71;56.71;100384.53;1667302;86;21030;-74
2023/10/12 06:17:08;;;;;;;11.25;3.50;;;;;;;11.77;56.75;100386.14;1667322;85;21090;-72
2023/10/12 06:19:38;;;;;;;10.10;3.65;;;;;;;11.81;56.66;100389.67;1667205;86;21501;-71
2023/10/12 06:22:42;;;;;;;8.48;3.92;;;;;;;11.85;56.58;100390.11;1667055;85;21037;-72
2023/10/12 06:24:49;;;;;;;8.90;3.47;;;;;;;11.87;56.53;100391.59;1656094;86;21014;-72
2023/10/12 06:29:53;;;;;;;11.12;3.90;;;;;;;11.93;56.45;100396.78;1667276;85;21034;-71
2023/10/12 06:32:31;;;;;;;10.60;3.62;;;;;;;11.97;56.46;100391.20;1667327;86;21122;-73
2023/10/12 06:35:12;;;;;;;12.35;3.50;;;;;;;11.99;56.48;100389.94;1667330;85;21067;-72
2023/10/12 06:45:51;;;;;;;9.83;3.75;;;;;;;12.18;56.97;100391.56;1667191;85;21038;-73
2023/10/12 06:51:02;;;;;;;10.72;3.95;;;;;;;12.30;57.15;100387.98;1667170;85;21498;-72
2023/10/12 06:53:36;;;;;;;9.73;3.92;;;;;;;12.38;57.05;100386.45;1649359;86;21110;-71
2023/10/12 06:59:10;;;;;;;9.08;3.15;;;;;;;12.51;56.94;100382.86;1667299;85;21028;-72
2023/10/12 07:01:21;;;;;;;11.88;3.52;;;;;;;12.57;56.90;100379.80;1664795;85;21022;-72
2023/10/12 07:03:50;;;;;;;10.08;3.77;;;;;;;12.64;56.80;100375.14;1667369;85;21082;-72
2023/10/12 07:06:18;;;;;;;10.58;3.65;;;;;;;12.70;56.65;100379.79;1667237;86;21442;-72
2023/10/12 07:08:48;;;;;;;8.35;3.52;;;;;;;12.74;56.63;100386.55;1672499;85;21757;-72
2023/10/12 07:11:17;;;;;;;9.08;3.27;;;;;;;12.79;56.57;100381.27;1676623;85;21090;-73
2023/10/12 07:13:47;;;;;;;11.10;3.87;;;;;;;12.87;56.64;100372.80;1676359;84;21102;-73
2023/10/12 07:16:20;;;;;;;9.75;3.77;;;;;;;12.95;56.61;100371.20;1676400;85;21067;-71
2023/10/12 07:18:49;;;;;;;9.05;3.70;;;;;;;13.06;56.67;100366.13;1676411;85;21074;-74
2023/10/12 07:21:22;;;;;;;8.43;3.25;;;;;;;13.16;56.55;100372.03;1674635;84;21038;-72
2023/10/12 07:23:57;;;;;;;7.42;3.40;;;;;;;13.27;56.50;100363.14;1676555;85;21075;-72
2023/10/12 07:26:30;;;;;;;7.87;3.15;;;;;;;13.38;56.30;100356.97;1676577;85;21023;-73
2023/10/12 07:28:57;;;;;;;12.80;4.05;;;;;;;13.48;56.19;100362.86;1676452;85;21123;-73
2023/10/12 07:31:41;;;;;;;8.55;3.90;;;;;;;13.61;56.13;100361.43;1676354;85;21094;-72
2023/10/12 07:36:44;;;;;;;9.18;3.60;;;;;;;13.83;55.97;100342.70;1676331;84;21123;-73
2023/10/12 07:41:57;;;;;;;8.13;3.25;;;;;;;14.11;55.84;100335.97;1676346;85;21071;-73
2023/10/12 07:44:27;;;;;;;9.40;3.05;;;;;;;14.47;55.39;100332.04;1676330;85;21598;-72
2023/10/12 07:46:56;;;;;;;8.35;3.60;;;;;;;14.93;54.72;100334.90;1676390;85;21086;-73
2023/10/12 07:49:38;;;;;;;11.45;3.12;;;;;;;15.40;53.55;100338.02;1676306;85;21055;-75
2023/10/12 07:57:31;;;;;;;9.65;3.30;;;;;;;16.87;50.45;100331.55;1699502;82;21088;-73
2023/10/12 08:21:30;;;;;;;11.63;3.72;;;;;;;19.08;45.19;100306.81;1594365;90;21204;-68
2023/10/12 08:24:09;;;;;;;8.83;3.80;;;;;;;19.23;44.82;100321.75;1593973;89;21579;-68
2023/10/12 08:39:49;;;;;;;9.60;3.85;;;;;;;18.98;45.00;100300.56;1703305;84;21556;-71
2023/10/12 08:44:59;;;;;;;11.05;3.60;;;;;;;18.76;45.39;100292.70;1702975;84;21104;-70
2023/10/12 08:47:40;;;;;;;10.70;3.85;;;;;;;18.65;45.73;100300.03;1703239;84;21125;-70
2023/10/12 08:50:08;;;;;;;9.65;3.50;;;;;;;18.57;45.97;100297.10;1703231;84;21061;-72
2023/10/12 08:52:38;;;;;;;7.85;3.72;;;;;;;18.51;46.12;100288.95;1702979;84;21073;-69
2023/10/12 08:55:12;;;;;;;7.75;3.70;;;;;;;18.46;46.24;100291.64;1703006;84;21145;-70
2023/10/12 08:58:30;;;;;;;7.87;3.77;;;;;;;18.40;46.51;100287.94;1702896;84;21033;-70
2023/10/12 09:03:32;;;;;;;10.28;3.67;;;;;;;18.35;46.34;100279.53;1703128;84;21502;-71
2023/10/12 09:05:59;;;;;;;8.83;3.70;;;;;;;18.31;46.30;100282.52;1708156;84;21502;-71
2023/10/12 09:11:02;;;;;;;7.92;3.62;;;;;;;18.31;46.56;100270.03;1711611;84;21041;-69
2023/10/12 09:13:34;;;;;;;10.05;3.90;;;;;;;18.35;46.25;100264.27;1711610;84;21546;-70
2023/10/12 09:16:09;;;;;;;12.33;3.80;;;;;;;18.34;46.28;100260.66;1711520;82;21172;-72
2023/10/12 09:18:46;;;;;;;13.68;4.00;;;;;;;18.34;46.28;100259.82;1711759;82;21116;-69
2023/10/12 09:21:24;;;;;;;7.90;3.47;;;;;;;18.30;46.46;100255.33;1711727;83;21084;-70
2023/10/12 09:24:53;;;;;;;7.12;3.62;;;;;;;18.29;46.60;100246.71;1712090;82;21065;-70
2023/10/12 09:26:46;;;;;;;7.55;3.25;;;;;;;18.29;46.80;100245.87;1682203;83;21092;-71
2023/10/12 09:36:54;;;;;;;7.92;3.33;;;;;;;18.60;46.74;100236.09;1711506;84;21069;-70
2023/10/12 09:39:27;;;;;;;8.10;3.40;;;;;;;18.69;46.55;100232.66;1711529;82;21080;-69
2023/10/12 09:41:59;;;;;;;7.20;3.70;;;;;;;18.79;46.35;100233.36;1711762;83;21002;-69
2023/10/12 09:44:37;;;;;;;8.23;4.15;;;;;;;18.88;46.31;100224.91;1711555;84;21097;-70
2023/10/12 09:47:08;;;;;;;13.30;4.85;;;;;;;18.96;46.28;100220.84;1711735;83;21054;-71
2023/10/12 09:49:32;;;;;;;9.83;3.75;;;;;;;19.04;46.29;100212.06;1712094;83;21073;-70
2023/10/12 09:52:13;;;;;;;9.68;4.08;;;;;;;19.14;46.03;100205.80;1711784;84;21070;-71
2023/10/12 09:54:52;;;;;;;10.08;3.70;;;;;;;19.20;45.67;100197.81;1711693;83;21072;-70
2023/10/12 09:57:25;;;;;;;9.28;3.50;;;;;;;19.27;45.80;100199.84;1711951;83;21049;-71
2023/10/12 09:59:59;;;;;;;7.72;3.70;;;;;;;19.32;45.38;100192.41;1711530;83;21081;-70
2023/10/12 10:02:34;;;;;;;9.40;3.35;;;;;;;19.40;45.33;100194.44;1711687;83;21124;-72
2023/10/12 10:05:11;;;;;;;7.05;3.15;;;;;;;19.42;45.21;100182.51;1709750;83;21429;-69
2023/10/12 10:07:55;;;;;;;10.85;3.75;;;;;;;19.44;45.25;100184.48;1703103;84;21045;-72
2023/10/12 10:10:36;;;;;;;10.10;3.37;;;;;;;19.45;45.14;100184.77;1702791;84;21133;-69
2023/10/12 10:13:10;;;;;;;9.03;3.55;;;;;;;19.43;45.29;100173.07;1702989;84;21123;-71
2023/10/12 10:15:56;;;;;;;12.18;3.62;;;;;;;19.43;45.48;100175.85;1702938;84;21124;-70
2023/10/12 10:18:29;;;;;;;9.70;3.60;;;;;;;19.46;45.46;100172.00;1702593;84;21457;-69
2023/10/12 10:21:06;;;;;;;10.45;3.27;;;;;;;19.51;45.26;100170.69;1702590;84;21001;-66
2023/10/12 10:23:47;;;;;;;9.25;3.37;;;;;;;19.55;45.09;100166.88;1702935;83;21030;-66
2023/10/12 10:26:30;;;;;;;7.87;3.75;;;;;;;19.58;45.08;100167.73;1702879;84;21010;-67
2023/10/12 10:29:06;;;;;;;8.18;3.37;;;;;;;19.62;45.06;100164.17;1702643;83;21539;-70
2023/10/12 10:31:36;;;;;;;12.18;3.55;;;;;;;19.70;44.92;100150.89;1702775;83;21465;-71
2023/10/12 10:34:08;;;;;;;13.80;3.90;;;;;;;19.74;44.72;100140.37;1702770;84;21621;-72
2023/10/12 10:36:37;;;;;;;10.03;3.22;;;;;;;19.79;44.57;100141.80;1703023;84;21074;-69
2023/10/12 10:41:46;;;;;;;12.23;3.22;;;;;;;19.90;44.38;100131.61;1702988;84;21077;-69
2023/10/12 10:44:16;;;;;;;12.68;3.35;;;;;;;19.99;44.27;100138.91;1702835;84;21493;-70
2023/10/12 10:46:54;;;;;;;13.25;3.75;;;;;;;20.07;44.18;100139.80;1702863;84;21453;-69
2023/10/12 10:49:21;;;;;;;9.88;3.83;;;;;;;20.13;44.13;100142.35;1702583;83;21077;-69
2023/10/12 10:52:02;;;;;;;9.90;3.67;;;;;;;20.24;43.91;100136.34;1702757;84;21422;-68
2023/10/12 10:54:26;;;;;;;17.98;9.18;;;;;;;20.31;44.03;100138.89;1702930;83;21089;-71
2023/10/12 10:56:58;;;;;;;16.52;9.43;;;;;;;20.36;43.85;100127.79;1638580;84;21148;-70
2023/10/12 10:59:26;;;;;;;10.82;6.67;;;;;;;20.41;43.87;100132.87;1702883;84;21010;-70
2023/10/12 11:01:59;;;;;;;15.10;5.87;;;;;;;20.46;43.79;100125.09;1702217;84;21110;-69
2023/10/12 11:07:17;;;;;;;9.65;3.92;;;;;;;20.53;43.86;100112.62;1670144;86;21067;-70
2023/10/12 11:10:05;;;;;;;;;;;;;;;20.54;43.82;100111.51;1672507;85;21103;-71
2023/10/12 11:12:30;;;;;;;9.98;3.30;;;;;;;20.57;43.71;100110.97;1668705;86;20251;-73
2023/10/12 11:15:11;;;;;;;9.68;4.53;;;;;;;20.57;43.88;100118.48;1670124;85;21091;-71
2023/10/12 11:17:49;;;;;;;9.98;3.87;;;;;;;20.58;43.64;100113.19;1669922;86;21080;-69
2023/10/12 11:20:38;;;;;;;12.25;3.47;;;;;;;20.60;43.75;100101.79;1670156;85;21523;-72
2023/10/12 11:22:59;;;;;;;15.20;4.97;;;;;;;20.63;43.53;100102.08;1668766;86;21097;-71
2023/10/12 11:25:28;;;;;;;8.93;3.45;;;;;;;20.69;43.39;100093.20;1651097;86;21553;-69
2023/10/12 11:27:58;;;;;;;8.13;3.40;;;;;;;20.76;43.39;100090.44;1670226;86;21071;-70
2023/10/12 11:30:31;;;;;;;11.40;3.15;;;;;;;20.79;43.44;100077.92;1669518;85;21087;-70
2023/10/12 11:33:00;;;;;;;11.80;3.42;;;;;;;20.82;43.57;100080.20;1670123;86;21058;-72
2023/10/12 11:35:42;;;;;;;13.10;3.77;;;;;;;20.84;43.52;100075.19;1670112;86;21448;-71
2023/10/12 11:38:23;;;;;;;9.43;3.30;;;;;;;20.88;43.32;100073.53;1670245;86;21047;-73
2023/10/12 11:40:52;;;;;;;12.33;3.65;;;;;;;20.93;43.02;100072.16;1670260;86;21789;-71
2023/10/12 11:43:29;;;;;;;18.20;3.60;;;;;;;20.99;42.90;100069.66;1670227;86;21075;-71
2023/10/12 11:46:07;;;;;;;8.88;3.05;;;;;;;21.04;42.89;100056.30;1649480;86;21455;-72
2023/10/12 11:48:33;;;;;;;11.43;3.40;;;;;;;21.04;43.02;100072.46;1670249;85;21511;-72
2023/10/12 11:51:05;;;;;;;12.68;4.03;;;;;;;21.03;43.04;100058.25;1670359;86;21507;-73
2023/10/12 11:53:38;;;;;;;7.55;3.85;;;;;;;21.06;43.04;100066.06;1652051;86;21088;-73
2023/10/12 11:56:14;;;;;;;15.03;3.37;;;;;;;21.04;43.15;100062.71;1670241;84;21087;-69
2023/10/12 11:58:57;;;;;;;9.28;3.47;;;;;;;21.05;43.17;100057.98;1670451;85;21537;-71
2023/10/12 12:01:27;;;;;;;10.03;4.08;;;;;;;21.07;43.21;100062.16;1670524;85;21072;-70
2023/10/12 12:03:56;;;;;;;7.97;3.60;;;;;;;21.12;43.05;100053.81;1670437;84;21466;-71
2023/10/12 12:06:26;;;;;;;8.93;3.60;;;;;;;21.16;42.98;100056.89;1677368;85;21071;-70
2023/10/12 12:08:59;;;;;;;8.88;3.45;;;;;;;21.17;42.95;100032.92;1666561;85;21083;-69
2023/10/12 12:11:31;;;;;;;14.50;3.80;;;;;;;21.20;42.83;100033.77;1666203;85;21078;-70
2023/10/12 12:13:58;;;;;;;9.95;3.52;;;;;;;21.23;42.83;100032.96;1666538;86;21483;-70
2023/10/12 12:16:27;;;;;;;12.45;3.67;;;;;;;21.24;42.69;100027.11;1674098;85;21122;-67
2023/10/12 12:18:56;;;;;;;14.45;3.80;;;;;;;21.26;42.63;100029.06;1674020;86;21098;-65
2023/10/12 12:21:34;;;;;;;10.23;3.92;;;;;;;21.28;42.69;100017.64;1674004;84;21086;-69
2023/10/12 12:26:53;;;;;;;14.58;3.87;;;;;;;21.31;42.55;100018.48;1673952;86;21566;-71
2023/10/12 12:29:30;;;;;;;10.68;4.17;;;;;;;21.34;42.39;100007.61;1674459;86;21035;-68
2023/10/12 12:31:58;;;;;;;12.60;3.45;;;;;;;21.37;42.40;100011.23;1671826;86;21115;-67
2023/10/12 12:34:41;;;;;;;8.05;3.58;;;;;;;21.37;42.10;99997.85;1674063;84;21039;-68
2023/10/12 12:37:10;;;;;;;11.05;3.70;;;;;;;21.37;42.06;100002.03;1674103;84;21042;-67
2023/10/12 12:39:39;;;;;;;10.43;3.95;;;;;;;21.35;42.00;100004.27;1674170;85;21078;-68
2023/10/12 12:42:15;;;;;;;9.10;3.85;;;;;;;21.35;41.93;99993.12;1674074;84;21039;-70
2023/10/12 12:44:39;;;;;;;6.97;3.47;;;;;;;21.32;41.91;99992.28;1672975;86;21012;-67
2023/10/12 12:47:09;;;;;;;11.18;4.10;;;;;;;21.31;41.81;99982.25;1674273;86;21082;-67
2023/10/12 12:49:38;;;;;;;9.75;3.40;;;;;;;21.31;42.01;99980.30;1674153;86;21058;-68
2023/10/12 12:52:09;;;;;;;5.85;3.52;;;;;;;21.28;42.04;99982.80;1673968;86;21046;-68
2023/10/12 12:54:40;;;;;;;13.95;4.03;;;;;;;21.25;42.04;99983.36;1674053;84;21067;-72
2023/10/12 12:57:13;;;;;;;11.55;3.70;;;;;;;21.24;42.08;99976.11;1673765;84;21066;-67
2023/10/12 12:59:40;;;;;;;10.58;4.00;;;;;;;21.20;42.04;99980.82;1674032;86;21039;-67
2023/10/12 13:02:09;;;;;;;10.50;3.40;;;;;;;21.18;42.14;99977.48;1674190;86;21071;-71
2023/10/12 13:04:38;;;;;;;12.10;3.87;;;;;;;21.16;42.02;99983.88;1673595;86;21059;-70
2023/10/12 13:07:12;;;;;;;10.20;3.85;;;;;;;21.13;42.15;99978.03;1656497;86;21167;-67
2023/10/12 13:09:41;;;;;;;7.65;3.72;;;;;;;21.11;42.14;99971.34;1702793;84;21110;-70
2023/10/12 13:12:10;;;;;;;9.73;3.52;;;;;;;21.09;41.79;99956.86;1685517;84;21127;-69
2023/10/12 13:14:42;;;;;;;9.88;3.65;;;;;;;21.09;41.73;99961.03;1671847;86;21507;-69
2023/10/12 13:17:12;;;;;;;10.95;3.40;;;;;;;21.07;41.75;99960.48;1671757;86;21105;-68
2023/10/12 13:19:44;;;;;;;11.22;3.77;;;;;;;21.05;41.93;99964.09;1672027;84;21063;-69
2023/10/12 13:22:13;;;;;;;10.43;3.60;;;;;;;21.04;42.03;99969.95;1671856;84;21099;-68
2023/10/12 13:24:42;;;;;;;10.18;3.60;;;;;;;21.01;42.13;99960.75;1671919;86;21039;-67
2023/10/12 13:27:19;;;;;;;10.58;3.60;;;;;;;20.98;42.24;99961.30;1668549;86;21463;-69
2023/10/12 13:29:48;;;;;;;9.98;3.30;;;;;;;20.95;42.19;99961.30;1670438;86;21054;-68
2023/10/12 13:32:17;;;;;;;9.43;3.50;;;;;;;20.94;42.26;99965.20;1656497;86;21094;-69
2023/10/12 13:34:46;;;;;;;14.35;3.85;;;;;;;20.92;42.36;99963.25;1645983;87;21046;-69
2023/10/12 13:37:14;;;;;;;13.08;3.37;;;;;;;20.89;42.38;99963.25;1670946;84;21079;-67
2023/10/12 13:39:43;;;;;;;6.28;2.95;;;;;;;20.88;42.45;99960.73;1673497;84;21131;-68
2023/10/12 13:42:13;;;;;;;13.48;3.75;;;;;;;20.84;42.50;99967.41;1672965;85;21034;-68
2023/10/12 13:44:42;;;;;;;6.40;2.85;;;;;;;20.83;42.62;99959.34;1660297;85;21059;-68
2023/10/12 13:47:13;;;;;;;7.78;3.08;;;;;;;20.82;42.64;99953.48;1646022;86;21616;-69
2023/10/12 13:49:41;;;;;;;15.68;3.92;;;;;;;20.80;42.87;99961.25;1646120;86;21778;-70
2023/10/12 13:52:10;;;;;;;12.93;3.58;;;;;;;20.79;42.95;99954.01;1646085;87;21027;-69
2023/10/12 13:54:45;;;;;;;9.63;3.37;;;;;;;20.78;43.05;99959.30;1646101;86;21093;-69
2023/10/12 13:57:14;;;;;;;12.25;2.98;;;;;;;20.74;43.19;99963.75;1646004;86;21082;-71
2023/10/12 13:59:47;;;;;;;10.08;4.00;;;;;;;20.69;43.38;99967.36;1645988;87;21062;-69
2023/10/12 14:02:16;;;;;;;9.73;3.40;;;;;;;20.66;43.57;99968.46;1664588;86;21494;-71
2023/10/12 14:04:45;;;;;;;17.80;3.83;;;;;;;20.62;43.67;99967.34;1673109;85;21003;-69
2023/10/12 14:07:15;;;;;;;14.28;4.58;;;;;;;20.60;43.76;99976.52;1671499;86;21573;-66
2023/10/12 14:09:48;;;;;;;12.20;3.62;;;;;;;20.55;43.86;99972.61;1671710;85;21566;-67
2023/10/12 14:12:16;;;;;;;8.90;2.92;;;;;;;20.52;43.91;99979.28;1685582;84;21184;-70
2023/10/12 14:14:47;;;;;;;11.25;3.70;;;;;;;20.49;43.85;99971.48;1701950;84;21514;-69
2023/10/12 14:17:16;;;;;;;14.35;3.60;;;;;;;20.45;43.87;99969.80;1702497;83;21536;-69
2023/10/12 14:19:45;;;;;;;4.97;2.98;;;;;;;20.43;43.92;99957.27;1702474;84;21589;-71
2023/10/12 14:22:15;;;;;;;10.10;3.08;;;;;;;20.41;44.07;99968.67;1683828;84;21085;-68
2023/10/12 14:24:47;;;;;;;14.63;3.95;;;;;;;20.38;44.04;99952.48;1683350;84;21117;-68
2023/10/12 14:27:15;;;;;;;7.85;3.50;;;;;;;20.37;44.14;99956.37;1683098;84;21108;-68
2023/10/12 14:29:44;;;;;;;8.05;3.12;;;;;;;20.32;44.29;99968.05;1683798;84;21101;-69
2023/10/12 14:32:13;;;;;;;11.90;3.40;;;;;;;20.28;44.39;99956.63;1683664;84;21109;-68
2023/10/12 14:34:43;;;;;;;8.95;3.27;;;;;;;20.24;44.49;99961.06;1684117;85;21065;-66